Lookout, Kentucky
Current Conditions -  °F | °C
As of 8:15 AM on Thursday 23 Oct 2014 (Local Time) from KPBX Reporting Station
Overcast Overcast  
Wind Chill: 44°   Ceiling: 3200
Heat Index: 44°   Visibility: 10mi
Dew Point: 40°   Wind: 3mph
Humidity: 86%   Direction: 290°WNW
Pressure: 30.22"   Gusts: NA
Location:  37.31°N, 82.47°W
Report Text: KPBX 231215Z AUTO 29003KT 10SM OVC032 07/05 A3022 RMK AO2 T00670045
Loading
Personal Weather Stations






























Interactive Weather Map
Tropical Storm Tracking
New forecast layout! Learn more

10-Day Weather Forecast

Advertisements
Track Severe Weather on mobile